Time;durP1;ratioP1;P1;durP2;ratioP2;P2;SDS_P1;SDS_P2;PMS_P1;PMS_P2;Temp;Humidity;BMP_temperature;BMP_pressure;BME280_temperature;BME280_humidity;BME280_pressure;Samples;Min_cycle;Max_cycle;Signal;HPM_P1;HPM_P2
2021/04/05 00:00:20;;;;;;;2.60;2.50;;;2.80;98.20;;;;;;4887237;29;20272;-68
2021/04/05 00:02:46;;;;;;;2.60;2.30;;;2.80;98.20;;;;;;4890347;29;20181;-70
2021/04/05 00:05:14;;;;;;;3.03;2.83;;;2.70;97.90;;;;;;4891064;29;20311;-69
2021/04/05 00:07:42;;;;;;;3.50;2.47;;;2.70;98.30;;;;;;4888118;29;20212;-70
2021/04/05 00:10:16;;;;;;;2.70;2.17;;;2.70;98.20;;;;;;4890620;29;20302;-70
2021/04/05 00:12:42;;;;;;;2.77;2.57;;;2.70;98.10;;;;;;4888104;29;20219;-70
2021/04/05 00:15:10;;;;;;;2.90;2.70;;;2.70;98.10;;;;;;4889646;29;20200;-70
2021/04/05 00:17:37;;;;;;;2.60;2.33;;;2.70;98.00;;;;;;4890692;29;20217;-70
2021/04/05 00:20:22;;;;;;;2.70;2.53;;;2.60;97.90;;;;;;4889885;29;20263;-69
2021/04/05 00:22:47;;;;;;;3.37;2.80;;;2.60;97.70;;;;;;4887795;29;20173;-70
2021/04/05 00:25:13;;;;;;;2.73;2.53;;;2.60;97.80;;;;;;4888157;29;20195;-69
2021/04/05 00:27:40;;;;;;;2.90;2.60;;;2.70;97.80;;;;;;4886439;29;20190;-68
2021/04/05 00:30:29;;;;;;;2.17;2.17;;;2.60;97.70;;;;;;4889384;29;20244;-68
2021/04/05 00:32:55;;;;;;;3.40;1.90;;;2.70;97.80;;;;;;4888872;29;20265;-68
2021/04/05 00:35:26;;;;;;;2.70;2.60;;;2.70;97.80;;;;;;4889682;29;20189;-69
2021/04/05 00:37:52;;;;;;;2.27;2.17;;;2.70;97.30;;;;;;4889202;29;20209;-68
2021/04/05 00:40:27;;;;;;;4.53;2.77;;;2.70;97.30;;;;;;4889179;29;20220;-68
2021/04/05 00:42:53;;;;;;;2.57;2.37;;;2.70;97.10;;;;;;4889205;29;20200;-69
2021/04/05 00:45:19;;;;;;;2.23;2.13;;;2.70;96.80;;;;;;4889709;29;20193;-68
2021/04/05 00:47:53;;;;;;;2.87;2.23;;;2.70;97.10;;;;;;4886077;29;20250;-68
2021/04/05 00:50:25;;;;;;;4.13;2.50;;;2.70;97.20;;;;;;4886804;29;20265;-68
2021/04/05 00:52:56;;;;;;;2.57;2.37;;;2.70;96.90;;;;;;4888473;29;20678;-68
2021/04/05 00:55:23;;;;;;;2.90;2.70;;;2.70;96.50;;;;;;4890631;29;20185;-68
2021/04/05 00:57:50;;;;;;;2.87;2.67;;;2.70;96.40;;;;;;4885721;29;20264;-68
2021/04/05 01:00:28;;;;;;;3.00;2.80;;;2.70;96.50;;;;;;4887914;29;20638;-68
2021/04/05 01:02:54;;;;;;;2.33;2.23;;;2.70;96.50;;;;;;4889249;29;20177;-69
2021/04/05 01:05:21;;;;;;;2.77;2.60;;;2.70;96.80;;;;;;4886791;29;20267;-69
2021/04/05 01:07:47;;;;;;;2.27;2.07;;;2.70;96.80;;;;;;4887933;29;20193;-71
2021/04/05 01:10:13;;;;;;;2.87;2.27;;;2.70;96.60;;;;;;4887508;29;20789;-70
2021/04/05 01:12:39;;;;;;;2.57;2.47;;;2.70;96.70;;;;;;4888784;29;20619;-70
2021/04/05 01:15:24;;;;;;;3.00;2.80;;;2.80;96.70;;;;;;4888951;29;20185;-70
2021/04/05 01:17:51;;;;;;;2.80;2.60;;;2.80;96.70;;;;;;4888083;29;20599;-70
2021/04/05 01:20:18;;;;;;;3.90;3.43;;;2.80;96.70;;;;;;4888293;29;20197;-68
2021/04/05 01:22:45;;;;;;;2.83;2.63;;;2.80;96.80;;;;;;4887398;29;20177;-69
2021/04/05 01:25:14;;;;;;;4.50;3.00;;;2.90;96.90;;;;;;4889062;29;20257;-69
2021/04/05 01:27:40;;;;;;;3.80;2.77;;;2.90;96.90;;;;;;4887518;29;20204;-69
2021/04/05 01:30:33;;;;;;;2.30;2.03;;;2.90;96.70;;;;;;4888990;29;20181;-69
2021/04/05 01:33:09;;;;;;;3.90;2.17;;;2.90;96.70;;;;;;4887654;29;20220;-69
2021/04/05 01:35:43;;;;;;;2.60;2.23;;;2.90;96.40;;;;;;4888915;29;20189;-69
2021/04/05 01:38:10;;;;;;;2.23;2.03;;;2.90;96.10;;;;;;4889033;29;20231;-69
2021/04/05 01:40:38;;;;;;;2.60;2.50;;;2.90;96.20;;;;;;4886946;29;20271;-69
2021/04/05 01:43:05;;;;;;;3.17;2.10;;;2.90;96.20;;;;;;4887648;29;20187;-69
2021/04/05 01:45:31;;;;;;;2.43;1.90;;;2.80;95.90;;;;;;4887365;29;20185;-69
2021/04/05 01:47:57;;;;;;;2.13;2.03;;;2.80;96.10;;;;;;4888063;29;20182;-69
2021/04/05 01:50:23;;;;;;;2.70;2.43;;;2.90;95.90;;;;;;4886894;29;20265;-69
2021/04/05 01:52:50;;;;;;;2.60;2.40;;;2.80;96.20;;;;;;4888785;29;20205;-70
2021/04/05 01:55:17;;;;;;;3.43;2.77;;;2.80;96.10;;;;;;4887601;29;20185;-69
2021/04/05 01:57:43;;;;;;;5.50;2.50;;;2.80;96.10;;;;;;4889275;29;20313;-69
2021/04/05 02:00:19;;;;;;;2.70;2.60;;;2.80;95.90;;;;;;4886085;29;20197;-69
2021/04/05 02:02:45;;;;;;;4.33;2.67;;;2.80;96.10;;;;;;4886796;29;20189;-69
2021/04/05 02:05:11;;;;;;;2.40;2.23;;;2.80;96.10;;;;;;4888623;29;20185;-69
2021/04/05 02:07:39;;;;;;;2.80;2.57;;;2.80;96.20;;;;;;4888421;29;20239;-70
2021/04/05 02:10:16;;;;;;;2.07;1.97;;;2.80;96.10;;;;;;4886071;29;20178;-70
2021/04/05 02:12:43;;;;;;;3.60;2.10;;;2.80;96.10;;;;;;4888054;29;20192;-70
2021/04/05 02:15:11;;;;;;;2.83;2.63;;;2.80;95.90;;;;;;4888941;29;20188;-68
2021/04/05 02:17:37;;;;;;;2.30;2.10;;;2.80;95.70;;;;;;4892096;29;20595;-71
2021/04/05 02:20:10;;;;;;;2.43;2.20;;;2.80;95.40;;;;;;4889395;29;20193;-69
2021/04/05 02:22:43;;;;;;;2.40;2.23;;;2.80;95.30;;;;;;4891066;29;20217;-70
2021/04/05 02:25:25;;;;;;;2.73;2.63;;;2.80;95.30;;;;;;4890060;29;20196;-69
2021/04/05 02:27:52;;;;;;;2.47;2.27;;;2.80;95.00;;;;;;4892128;29;20197;-68
2021/04/05 02:30:24;;;;;;;2.80;2.63;;;2.90;94.80;;;;;;4892521;29;20233;-70
2021/04/05 02:33:01;;;;;;;3.53;2.80;;;2.90;94.90;;;;;;4887811;29;20200;-70
2021/04/05 02:35:30;;;;;;;2.80;2.57;;;2.80;94.70;;;;;;4889606;29;20244;-70
2021/04/05 02:37:58;;;;;;;2.57;2.47;;;2.70;94.50;;;;;;4891532;29;20264;-68
2021/04/05 02:40:24;;;;;;;2.57;2.43;;;2.70;94.60;;;;;;4887604;29;20204;-68
2021/04/05 02:42:53;;;;;;;2.57;2.37;;;2.70;94.70;;;;;;4889894;29;20333;-68
2021/04/05 02:45:26;;;;;;;3.03;2.83;;;2.70;94.60;;;;;;4888969;29;20685;-70
2021/04/05 02:47:58;;;;;;;3.03;2.80;;;2.70;94.70;;;;;;4891491;29;20189;-70
2021/04/05 02:50:26;;;;;;;2.60;2.50;;;2.70;94.50;;;;;;4888827;29;20714;-70
2021/04/05 02:52:55;;;;;;;3.63;3.33;;;2.80;94.40;;;;;;4890655;29;20645;-70
2021/04/05 02:55:22;;;;;;;2.90;2.67;;;2.80;94.40;;;;;;4889125;29;20189;-70
2021/04/05 02:57:48;;;;;;;5.17;3.40;;;2.70;94.00;;;;;;4891493;29;20618;-70
2021/04/05 03:00:16;;;;;;;3.53;3.27;;;2.80;94.10;;;;;;4888199;29;20185;-70
2021/04/05 03:02:45;;;;;;;3.33;3.10;;;2.70;93.90;;;;;;4890521;29;20177;-68
2021/04/05 03:05:12;;;;;;;3.80;2.83;;;2.70;93.50;;;;;;4889070;29;20188;-70
2021/04/05 03:07:38;;;;;;;3.57;3.00;;;2.70;93.50;;;;;;4889374;29;21041;-70
2021/04/05 03:10:06;;;;;;;3.57;3.27;;;2.70;93.60;;;;;;4892608;29;20280;-70
2021/04/05 03:12:35;;;;;;;3.03;2.80;;;2.70;93.80;;;;;;4889332;29;20192;-70
2021/04/05 03:15:03;;;;;;;4.13;2.93;;;2.60;93.70;;;;;;4888581;29;20177;-70
2021/04/05 03:17:30;;;;;;;3.17;3.00;;;2.60;93.80;;;;;;4890470;29;20213;-68
2021/04/05 03:19:59;;;;;;;3.30;3.00;;;2.50;93.70;;;;;;4889293;29;20237;-70
2021/04/05 03:22:25;;;;;;;3.37;3.07;;;2.50;93.90;;;;;;4889981;29;20237;-69
2021/04/05 03:24:51;;;;;;;4.60;3.60;;;2.50;94.00;;;;;;4886253;29;20264;-70
2021/04/05 03:27:16;;;;;;;3.03;2.63;;;2.40;94.20;;;;;;4887121;29;20200;-70
2021/04/05 03:29:44;;;;;;;4.73;3.50;;;2.40;94.40;;;;;;4888868;29;20665;-71
2021/04/05 03:32:15;;;;;;;3.77;3.47;;;2.30;94.40;;;;;;4889248;29;20185;-70
2021/04/05 03:34:47;;;;;;;3.73;2.83;;;2.30;94.50;;;;;;4890133;29;20222;-69
2021/04/05 03:37:17;;;;;;;2.77;2.57;;;2.30;94.60;;;;;;4889100;29;20193;-68
2021/04/05 03:39:43;;;;;;;3.37;3.07;;;2.20;94.30;;;;;;4889816;29;20185;-71
2021/04/05 03:42:37;;;;;;;2.37;2.27;;;2.20;94.60;;;;;;4889036;29;20730;-70
2021/04/05 03:45:25;;;;;;;3.87;3.53;;;2.20;94.60;;;;;;4888004;29;20193;-69
2021/04/05 03:48:25;;;;;;;3.57;2.93;;;2.20;94.60;;;;;;4890638;29;20193;-70
2021/04/05 03:51:11;;;;;;;4.03;2.90;;;2.20;94.50;;;;;;4888038;29;20615;-70
2021/04/05 03:53:47;;;;;;;3.37;2.97;;;2.20;94.40;;;;;;4887805;29;20207;-70
2021/04/05 03:56:16;;;;;;;4.00;3.37;;;2.10;94.40;;;;;;4889905;29;20220;-70
2021/04/05 03:58:54;;;;;;;2.67;2.47;;;2.10;94.40;;;;;;4889814;29;20208;-70
2021/04/05 04:01:27;;;;;;;3.80;2.93;;;2.10;94.10;;;;;;4888122;29;20193;-68
2021/04/05 04:04:04;;;;;;;2.80;2.60;;;2.20;94.10;;;;;;4889365;29;20614;-69
2021/04/05 04:06:46;;;;;;;2.87;2.10;;;2.10;94.00;;;;;;4888164;29;20276;-70
2021/04/05 04:09:14;;;;;;;2.40;2.30;;;2.10;93.80;;;;;;4882890;29;20189;-71
2021/04/05 04:11:44;;;;;;;4.17;3.77;;;2.10;93.50;;;;;;4889627;29;20280;-70
2021/04/05 04:14:11;;;;;;;3.87;2.73;;;2.10;93.50;;;;;;4879401;29;20562;-70
2021/04/05 04:16:37;;;;;;;3.07;2.87;;;2.10;93.30;;;;;;4887576;29;20635;-70
2021/04/05 04:19:06;;;;;;;3.40;3.00;;;2.10;93.30;;;;;;4873937;29;20738;-69
2021/04/05 04:21:32;;;;;;;3.47;3.13;;;2.10;93.20;;;;;;4887265;29;20196;-69
2021/04/05 04:23:59;;;;;;;5.50;3.90;;;2.10;93.10;;;;;;4888227;29;20910;-70
2021/04/05 04:26:25;;;;;;;3.30;3.10;;;2.10;93.10;;;;;;4887805;29;20190;-70
2021/04/05 04:28:51;;;;;;;2.33;2.20;;;2.10;92.90;;;;;;4888308;29;20201;-70
2021/04/05 04:31:20;;;;;;;3.43;3.10;;;2.10;93.00;;;;;;4888851;29;20199;-69
2021/04/05 04:33:48;;;;;;;3.10;2.90;;;2.00;92.90;;;;;;4889754;29;20189;-68
2021/04/05 04:36:21;;;;;;;7.10;3.33;;;2.00;92.80;;;;;;4889681;29;20177;-67
2021/04/05 04:38:47;;;;;;;4.53;3.33;;;2.00;92.60;;;;;;4889022;29;20324;-68
2021/04/05 04:41:20;;;;;;;3.97;3.67;;;2.00;92.70;;;;;;4889625;29;20276;-68
2021/04/05 04:43:45;;;;;;;4.07;3.63;;;2.00;92.60;;;;;;4887679;29;20272;-68
2021/04/05 04:46:11;;;;;;;4.07;3.57;;;2.10;92.50;;;;;;4885846;29;20193;-69
2021/04/05 04:48:36;;;;;;;3.30;3.00;;;2.10;92.40;;;;;;4890189;29;20193;-68
2021/04/05 04:51:02;;;;;;;3.00;2.80;;;2.10;92.40;;;;;;4888865;29;20204;-68
2021/04/05 04:53:28;;;;;;;3.53;3.27;;;2.00;92.20;;;;;;4889307;29;20287;-68
2021/04/05 04:55:53;;;;;;;3.70;3.40;;;2.10;92.20;;;;;;4888665;29;20191;-68
2021/04/05 04:58:19;;;;;;;5.63;4.07;;;2.10;92.30;;;;;;4887465;29;20236;-69
2021/04/05 05:00:45;;;;;;;3.43;3.13;;;2.10;92.30;;;;;;4886546;29;20204;-70
2021/04/05 05:03:11;;;;;;;5.00;4.60;;;2.10;92.40;;;;;;4887982;29;20570;-69
2021/04/05 05:05:38;;;;;;;7.53;4.33;;;2.00;92.30;;;;;;4889290;29;20183;-71
2021/04/05 05:08:05;;;;;;;15.87;3.60;;;2.10;92.50;;;;;;4888616;29;20226;-72
2021/04/05 05:10:32;;;;;;;4.07;3.37;;;2.10;92.60;;;;;;4889341;29;20645;-70
2021/04/05 05:12:58;;;;;;;5.37;3.67;;;2.10;92.40;;;;;;4889489;29;20185;-72
2021/04/05 05:15:24;;;;;;;7.63;3.83;;;2.20;92.10;;;;;;4888827;29;21009;-70
2021/04/05 05:17:51;;;;;;;8.23;4.50;;;2.20;92.30;;;;;;4888560;29;20216;-71
2021/04/05 05:20:18;;;;;;;6.20;4.13;;;2.20;92.10;;;;;;4888920;29;20217;-71
2021/04/05 05:22:46;;;;;;;3.70;3.40;;;2.20;91.90;;;;;;4888860;29;20181;-69
2021/04/05 05:25:17;;;;;;;3.60;3.30;;;2.20;92.00;;;;;;4888226;29;20173;-70
2021/04/05 05:27:48;;;;;;;3.50;3.30;;;2.30;92.10;;;;;;4879365;29;20181;-70
2021/04/05 05:30:20;;;;;;;4.67;3.30;;;2.20;91.90;;;;;;4888129;29;20204;-70
2021/04/05 05:32:47;;;;;;;5.83;4.37;;;2.30;91.90;;;;;;4890742;29;20758;-70
2021/04/05 05:35:14;;;;;;;5.70;3.80;;;2.30;92.10;;;;;;4888291;29;20185;-69
2021/04/05 05:37:39;;;;;;;5.77;3.57;;;2.30;92.20;;;;;;4869432;29;20216;-70
2021/04/05 05:40:06;;;;;;;3.03;2.83;;;2.40;92.10;;;;;;4888745;29;20193;-70
2021/04/05 05:43:00;;;;;;;6.07;3.60;;;2.50;92.10;;;;;;4879546;29;21973;-70
2021/04/05 05:45:33;;;;;;;7.00;4.60;;;2.60;92.00;;;;;;4882953;29;20199;-70
2021/04/05 05:48:17;;;;;;;3.37;3.07;;;2.70;91.70;;;;;;4885673;29;20558;-71
2021/04/05 05:51:37;;;;;;;6.10;4.07;;;2.70;91.70;;;;;;4889028;29;20722;-69
2021/04/05 05:54:24;;;;;;;3.33;3.03;;;2.80;91.00;;;;;;4834802;29;20196;-69
2021/04/05 05:57:06;;;;;;;4.33;3.83;;;2.90;90.70;;;;;;4834283;29;20197;-70
2021/04/05 05:59:46;;;;;;;4.63;3.67;;;3.00;90.90;;;;;;4831804;29;20210;-69
2021/04/05 06:02:24;;;;;;;3.67;3.33;;;3.10;90.00;;;;;;4834412;29;20198;-69
2021/04/05 06:04:58;;;;;;;8.27;3.20;;;3.10;89.50;;;;;;4835437;29;20203;-70
2021/04/05 06:07:44;;;;;;;5.20;3.70;;;3.20;88.60;;;;;;4835494;29;20219;-69
2021/04/05 06:10:28;;;;;;;4.87;4.47;;;3.20;88.80;;;;;;4833878;29;20195;-70
2021/04/05 06:13:25;;;;;;;4.27;3.70;;;3.30;89.00;;;;;;4835191;29;20346;-70
2021/04/05 06:16:09;;;;;;;4.33;3.93;;;3.40;89.10;;;;;;4833943;29;20663;-69
2021/04/05 06:18:48;;;;;;;4.23;3.80;;;3.50;89.20;;;;;;4833453;29;20764;-69
2021/04/05 06:21:39;;;;;;;4.13;3.80;;;3.60;89.10;;;;;;4835161;29;20595;-69
2021/04/05 06:24:15;;;;;;;4.00;3.27;;;3.70;88.10;;;;;;4844335;29;20215;-70
2021/04/05 06:26:57;;;;;;;4.43;4.03;;;3.80;88.40;;;;;;4892063;29;20184;-70
2021/04/05 06:29:22;;;;;;;6.20;3.73;;;3.80;87.70;;;;;;4890754;29;20188;-70
2021/04/05 06:31:59;;;;;;;4.27;3.43;;;3.90;87.80;;;;;;4891091;29;20186;-69
2021/04/05 06:34:56;;;;;;;3.37;3.17;;;3.90;87.80;;;;;;4892443;29;20196;-69
2021/04/05 06:37:36;;;;;;;4.47;3.30;;;4.10;87.80;;;;;;4891991;29;20197;-69
2021/04/05 06:40:09;;;;;;;4.23;3.93;;;4.10;87.00;;;;;;4892820;29;20675;-70
2021/04/05 06:43:00;;;;;;;4.67;3.57;;;4.10;85.90;;;;;;4892062;29;20685;-69
2021/04/05 06:45:30;;;;;;;3.40;3.10;;;4.00;86.60;;;;;;4891365;29;20182;-70
2021/04/05 06:48:14;;;;;;;5.80;4.07;;;4.10;87.00;;;;;;4888446;29;20185;-70
2021/04/05 06:51:17;;;;;;;6.50;4.27;;;4.10;86.80;;;;;;4890619;29;20193;-69
2021/04/05 06:54:18;;;;;;;4.30;3.40;;;4.10;86.50;;;;;;4889505;29;20201;-69
2021/04/05 06:56:46;;;;;;;3.73;3.40;;;4.00;86.70;;;;;;4889763;29;20197;-69
2021/04/05 06:59:31;;;;;;;4.53;4.03;;;4.00;86.80;;;;;;4889973;29;20211;-69
2021/04/05 07:02:28;;;;;;;4.17;3.73;;;4.10;86.80;;;;;;4889641;29;20225;-70
2021/04/05 07:05:22;;;;;;;5.53;4.20;;;4.10;87.20;;;;;;4889734;29;20185;-70
2021/04/05 07:07:55;;;;;;;4.80;4.20;;;4.20;87.20;;;;;;4812374;29;20207;-70
2021/04/05 07:10:31;;;;;;;5.00;3.60;;;4.10;86.80;;;;;;4813806;29;20204;-70
2021/04/05 07:13:22;;;;;;;4.70;4.17;;;4.10;86.90;;;;;;4815926;29;20195;-69
2021/04/05 07:16:00;;;;;;;4.53;3.20;;;4.20;87.00;;;;;;4744046;30;20653;-71
2021/04/05 07:18:48;;;;;;;7.93;3.63;;;4.30;87.20;;;;;;4743555;30;20321;-70
2021/04/05 07:21:53;;;;;;;4.73;3.47;;;4.50;87.20;;;;;;4743751;30;20206;-70
2021/04/05 07:24:45;;;;;;;4.87;4.03;;;4.80;87.40;;;;;;4742591;30;20995;-69
2021/04/05 07:27:11;;;;;;;4.17;3.80;;;5.00;85.50;;;;;;4744492;30;20237;-69
2021/04/05 07:30:14;;;;;;;5.93;4.83;;;5.00;84.40;;;;;;4741535;30;20198;-69
2021/04/05 07:33:17;;;;;;;5.77;4.57;;;5.10;84.70;;;;;;4740157;30;20245;-70
2021/04/05 07:35:59;;;;;;;4.57;3.63;;;5.30;84.60;;;;;;4743093;30;20194;-69
2021/04/05 07:38:46;;;;;;;5.90;4.30;;;5.40;83.40;;;;;;4743491;30;20238;-70
2021/04/05 07:41:26;;;;;;;4.67;3.70;;;5.60;83.90;;;;;;4744607;30;20198;-69
2021/04/05 07:44:09;;;;;;;5.20;4.80;;;5.80;83.80;;;;;;4748801;29;20281;-69
2021/04/05 07:46:51;;;;;;;5.17;4.57;;;6.00;84.20;;;;;;4796642;29;20212;-70
2021/04/05 07:49:28;;;;;;;5.33;3.80;;;6.30;84.60;;;;;;4795315;29;20192;-69
2021/04/05 07:52:06;;;;;;;6.20;5.10;;;6.60;82.70;;;;;;4799613;29;20749;-70
2021/04/05 07:54:38;;;;;;;7.77;4.57;;;6.70;80.80;;;;;;4888780;29;20773;-70
2021/04/05 07:57:07;;;;;;;6.73;5.47;;;6.70;81.00;;;;;;4888092;29;20258;-70
2021/04/05 07:59:54;;;;;;;7.20;5.00;;;6.70;81.10;;;;;;4885912;29;20829;-68
2021/04/05 08:02:39;;;;;;;7.87;4.27;;;6.80;81.80;;;;;;4889425;29;20184;-69
2021/04/05 08:05:42;;;;;;;4.23;3.70;;;7.00;82.70;;;;;;4889167;29;20181;-70
2021/04/05 08:08:26;;;;;;;4.07;3.67;;;7.10;80.10;;;;;;4887229;29;20745;-70
2021/04/05 08:11:23;;;;;;;8.43;5.33;;;7.20;80.00;;;;;;4888002;29;20272;-70
2021/04/05 08:14:08;;;;;;;5.13;4.63;;;7.30;79.70;;;;;;4799053;29;20308;-69
2021/04/05 08:16:58;;;;;;;4.43;4.03;;;7.40;80.30;;;;;;4803992;29;20220;-70
2021/04/05 08:19:46;;;;;;;6.10;4.10;;;7.40;78.20;;;;;;4822143;29;20220;-71
2021/04/05 08:22:40;;;;;;;5.07;4.20;;;7.20;77.10;;;;;;4821295;29;20311;-70
2021/04/05 08:25:20;;;;;;;5.87;4.13;;;7.20;79.00;;;;;;4821357;29;20242;-71
2021/04/05 08:28:17;;;;;;;7.10;4.80;;;7.40;80.30;;;;;;4820611;29;20285;-70
2021/04/05 08:31:10;;;;;;;4.33;3.83;;;7.80;80.00;;;;;;4789222;29;20235;-70
2021/04/05 08:34:02;;;;;;;5.13;4.63;;;8.30;78.90;;;;;;4781489;29;20193;-71
2021/04/05 08:36:40;;;;;;;5.20;4.47;;;8.70;77.80;;;;;;4786457;29;20204;-71
2021/04/05 08:39:13;;;;;;;4.53;4.20;;;9.00;76.50;;;;;;4790632;29;20224;-70
2021/04/05 08:42:00;;;;;;;5.00;4.00;;;9.20;76.50;;;;;;4789691;29;20350;-70
2021/04/05 08:44:43;;;;;;;6.17;4.53;;;9.20;73.90;;;;;;4789977;29;20205;-71
2021/04/05 08:47:14;;;;;;;4.27;3.87;;;8.90;72.40;;;;;;4785283;29;20192;-70
2021/04/05 08:49:45;;;;;;;4.90;4.43;;;8.90;74.30;;;;;;4793471;29;20237;-70
2021/04/05 08:52:12;;;;;;;4.70;4.10;;;8.90;74.90;;;;;;4816800;29;20210;-70
2021/04/05 08:54:40;;;;;;;4.63;4.30;;;8.90;74.50;;;;;;4820857;29;20232;-70
2021/04/05 08:57:11;;;;;;;4.23;3.73;;;9.20;73.30;;;;;;4821137;29;20217;-70
2021/04/05 08:59:49;;;;;;;4.03;3.73;;;9.80;73.70;;;;;;4821127;29;20248;-70
2021/04/05 09:05:23;;;;;;;4.00;3.63;;;10.80;68.20;;;;;;4818939;29;20197;-69
2021/04/05 09:07:58;;;;;;;3.53;3.33;;;11.50;69.70;;;;;;4859854;29;20623;-70
2021/04/05 09:10:45;;;;;;;4.80;4.27;;;12.50;68.70;;;;;;4888715;29;20350;-70
2021/04/05 09:13:21;;;;;;;6.15;4.47;;;12.90;66.10;;;;;;4830079;29;20230;-70
2021/04/05 09:16:24;;;;;;;6.05;4.95;;;12.90;65.30;;;;;;4826949;29;20223;-70
2021/04/05 09:19:21;;;;;;;5.22;4.70;;;12.50;65.30;;;;;;4832165;29;20817;-70
2021/04/05 09:22:18;;;;;;;4.40;4.00;;;12.10;64.80;;;;;;4828035;29;20203;-70
2021/04/05 09:24:49;;;;;;;5.20;4.38;;;11.70;65.50;;;;;;4766610;30;20233;-70
2021/04/05 09:27:36;;;;;;;5.03;4.55;;;11.80;67.10;;;;;;4771287;30;20278;-70
2021/04/05 09:30:42;;;;;;;3.72;3.38;;;12.50;67.20;;;;;;4769487;30;21018;-71
2021/04/05 09:33:31;;;;;;;3.75;3.40;;;13.10;64.60;;;;;;4771116;30;21107;-70
2021/04/05 09:36:18;;;;;;;4.65;4.18;;;13.30;63.70;;;;;;4771923;30;20228;-69
2021/04/05 09:38:56;;;;;;;4.25;3.83;;;13.10;63.30;;;;;;4767320;30;20312;-69
2021/04/05 09:41:22;;;;;;;4.13;3.70;;;12.90;63.90;;;;;;4767970;30;20284;-70
2021/04/05 09:44:00;;;;;;;4.03;3.58;;;12.80;65.00;;;;;;4770372;30;20194;-70
2021/04/05 09:46:54;;;;;;;5.03;4.47;;;12.80;65.80;;;;;;4770551;30;20304;-70
2021/04/05 09:50:23;;;;;;;3.38;3.17;;;12.90;64.40;;;;;;4762145;29;20206;-70
2021/04/05 09:53:16;;;;;;;3.40;3.20;;;13.00;62.40;;;;;;4750227;30;20267;-70
2021/04/05 09:55:59;;;;;;;4.15;3.70;;;13.20;62.30;;;;;;4753809;30;20316;-70
2021/04/05 09:58:50;;;;;;;3.97;3.67;;;13.30;62.10;;;;;;4755663;30;20241;-70
2021/04/05 10:01:21;;;;;;;3.63;3.42;;;13.30;62.60;;;;;;4782131;29;20204;-71
2021/04/05 10:03:52;;;;;;;4.57;4.28;;;13.40;62.90;;;;;;4816678;29;20229;-71
2021/04/05 10:06:19;;;;;;;5.55;4.70;;;13.60;63.20;;;;;;4816168;29;20192;-70
2021/04/05 10:08:48;;;;;;;6.28;3.95;;;14.40;61.60;;;;;;4816095;29;20273;-70
2021/04/05 10:11:16;;;;;;;5.63;4.63;;;15.60;62.10;;;;;;4814603;29;20219;-71
2021/04/05 10:13:54;;;;;;;4.82;3.80;;;17.00;60.20;;;;;;4816010;29;20194;-70
2021/04/05 10:16:22;;;;;;;5.45;4.50;;;18.40;58.50;;;;;;4815117;29;20199;-71
2021/04/05 10:18:53;;;;;;;4.65;4.35;;;19.80;57.10;;;;;;4815804;29;20874;-70
2021/04/05 10:21:21;;;;;;;5.05;4.63;;;20.90;54.90;;;;;;4815866;29;20320;-70
2021/04/05 10:23:49;;;;;;;4.95;4.63;;;21.50;52.20;;;;;;4872543;29;20193;-70
2021/04/05 10:26:16;;;;;;;5.05;4.63;;;22.10;51.90;;;;;;4890983;29;20181;-70
2021/04/05 10:28:44;;;;;;;5.93;5.10;;;22.60;51.10;;;;;;4890952;29;20775;-69
2021/04/05 10:31:18;;;;;;;4.72;4.43;;;23.30;52.30;;;;;;4891444;29;20177;-69
2021/04/05 10:33:50;;;;;;;4.43;4.03;;;24.00;49.10;;;;;;4890366;29;20207;-69
2021/04/05 10:36:21;;;;;;;4.15;3.95;;;24.70;48.90;;;;;;4890263;29;20218;-69
2021/04/05 10:38:47;;;;;;;5.00;4.65;;;25.20;49.10;;;;;;4886298;29;20221;-71
2021/04/05 10:41:17;;;;;;;4.07;3.78;;;25.80;46.70;;;;;;4889762;29;20223;-70
2021/04/05 10:43:48;;;;;;;5.00;4.60;;;25.80;46.20;;;;;;4890308;29;20242;-70
2021/04/05 10:46:16;;;;;;;4.57;4.28;;;25.80;48.70;;;;;;4889687;29;20224;-70
2021/04/05 10:48:46;;;;;;;4.25;4.05;;;26.00;46.90;;;;;;4888156;29;20193;-70
2021/04/05 10:51:33;;;;;;;4.45;4.15;;;26.30;44.50;;;;;;4889977;29;20192;-68
2021/04/05 10:54:15;;;;;;;4.93;4.53;;;25.60;45.20;;;;;;4890209;29;20245;-69
2021/04/05 10:56:48;;;;;;;5.90;4.88;;;25.10;47.00;;;;;;4890066;29;20196;-68
2021/04/05 10:59:42;;;;;;;4.03;3.83;;;24.70;48.90;;;;;;4890296;29;20269;-69
2021/04/05 11:02:19;;;;;;;4.35;4.05;;;24.90;47.00;;;;;;4815377;29;20207;-69
2021/04/05 11:04:52;;;;;;;4.47;4.00;;;25.20;48.30;;;;;;4807199;29;20195;-69
2021/04/05 11:07:21;;;;;;;4.28;3.95;;;25.90;48.60;;;;;;4815448;29;20233;-69
2021/04/05 11:09:49;;;;;;;3.85;3.65;;;26.60;43.40;;;;;;4817991;29;20645;-69
2021/04/05 11:12:19;;;;;;;3.85;3.65;;;26.90;46.20;;;;;;4832373;29;20197;-69
2021/04/05 11:14:48;;;;;;;4.38;4.18;;;26.60;44.50;;;;;;4832707;29;20195;-70
2021/04/05 11:17:15;;;;;;;6.63;4.28;;;26.00;45.10;;;;;;4833268;29;20339;-69
2021/04/05 11:19:51;;;;;;;4.72;3.38;;;25.60;46.20;;;;;;4833107;29;20259;-70
2021/04/05 11:22:27;;;;;;;3.65;3.47;;;25.20;48.00;;;;;;4832572;29;20656;-70
2021/04/05 11:24:58;;;;;;;4.03;3.78;;;25.20;46.90;;;;;;4833286;29;20253;-69
2021/04/05 11:27:26;;;;;;;3.80;3.70;;;25.70;46.40;;;;;;4824260;29;20224;-70
2021/04/05 11:29:55;;;;;;;3.97;3.78;;;26.20;45.50;;;;;;4829688;29;20320;-71
2021/04/05 11:32:22;;;;;;;4.20;3.90;;;26.00;45.20;;;;;;4831976;29;20199;-70
2021/04/05 11:34:57;;;;;;;3.88;3.72;;;25.10;44.40;;;;;;4832083;29;20209;-70
2021/04/05 11:37:30;;;;;;;4.43;4.13;;;23.30;44.40;;;;;;4827218;29;20210;-68
2021/04/05 11:40:09;;;;;;;3.72;3.53;;;21.20;47.50;;;;;;4877663;29;20201;-68
2021/04/05 11:42:42;;;;;;;4.53;4.30;;;19.90;48.70;;;;;;4889044;29;20177;-70
2021/04/05 11:45:09;;;;;;;3.92;3.72;;;18.90;51.70;;;;;;4887484;29;20632;-68
2021/04/05 11:47:38;;;;;;;4.18;3.90;;;18.20;51.10;;;;;;4888406;29;20235;-68
2021/04/05 11:50:12;;;;;;;4.50;4.13;;;17.50;51.50;;;;;;4885580;29;20328;-68
2021/04/05 11:52:43;;;;;;;4.13;3.83;;;16.60;53.00;;;;;;4887125;29;20193;-70
2021/04/05 11:55:13;;;;;;;4.20;4.00;;;16.00;53.90;;;;;;4890408;29;20663;-70
2021/04/05 11:57:49;;;;;;;3.50;3.33;;;15.70;55.30;;;;;;4887701;29;20217;-70
2021/04/05 12:00:19;;;;;;;3.17;3.08;;;16.20;55.90;;;;;;4885460;29;20197;-70
2021/04/05 12:02:54;;;;;;;2.92;2.72;;;17.40;54.80;;;;;;4886428;29;20192;-70
2021/04/05 12:05:27;;;;;;;3.63;3.28;;;18.60;51.80;;;;;;4889742;29;20185;-69
2021/04/05 12:08:23;;;;;;;3.28;3.08;;;19.60;50.10;;;;;;4888656;29;20241;-70
2021/04/05 12:10:53;;;;;;;3.17;2.53;;;20.40;50.90;;;;;;4884117;29;20894;-69
2021/04/05 12:13:27;;;;;;;2.95;2.78;;;21.60;50.30;;;;;;4888442;29;20204;-69
2021/04/05 12:16:00;;;;;;;3.88;3.67;;;22.30;47.80;;;;;;4889684;29;20203;-69
2021/04/05 12:18:27;;;;;;;3.30;3.17;;;22.50;46.70;;;;;;4889449;29;20267;-69
2021/04/05 12:21:19;;;;;;;3.08;2.97;;;22.60;47.80;;;;;;4887761;29;20212;-70
2021/04/05 12:24:00;;;;;;;3.70;3.55;;;23.20;46.70;;;;;;4882290;29;20209;-69
2021/04/05 12:26:32;;;;;;;3.70;3.45;;;23.50;46.70;;;;;;4886661;29;20196;-70
2021/04/05 12:29:07;;;;;;;4.00;3.80;;;23.50;46.30;;;;;;4888283;29;20240;-69
2021/04/05 12:31:36;;;;;;;3.78;3.58;;;23.60;45.60;;;;;;4889194;29;20185;-70
2021/04/05 12:34:11;;;;;;;3.47;3.38;;;23.90;45.30;;;;;;4887184;29;20200;-69
2021/04/05 12:36:39;;;;;;;3.53;3.38;;;24.00;45.50;;;;;;4885740;29;20189;-69
2021/04/05 12:39:08;;;;;;;3.75;3.40;;;24.20;45.50;;;;;;4882986;29;20206;-69
2021/04/05 12:41:47;;;;;;;3.70;3.50;;;23.90;45.40;;;;;;4886356;29;20636;-70
2021/04/05 12:44:29;;;;;;;3.55;3.45;;;23.70;45.20;;;;;;4887619;29;20216;-70
2021/04/05 12:46:57;;;;;;;3.30;3.17;;;23.90;45.90;;;;;;4887339;29;20193;-70
2021/04/05 12:49:34;;;;;;;3.13;3.00;;;24.40;46.20;;;;;;4887255;29;20589;-70
2021/04/05 12:52:04;;;;;;;2.92;2.78;;;25.10;46.50;;;;;;4887734;29;20197;-71
2021/04/05 12:54:32;;;;;;;3.45;3.25;;;26.00;43.90;;;;;;4887487;29;20578;-70
2021/04/05 12:57:01;;;;;;;2.97;2.88;;;26.30;44.70;;;;;;4886681;29;20192;-70
2021/04/05 12:59:28;;;;;;;2.90;2.70;;;26.00;45.70;;;;;;4885871;29;20285;-69
2021/04/05 13:02:06;;;;;;;2.45;2.42;;;25.30;42.70;;;;;;4888417;29;20677;-70
2021/04/05 13:04:34;;;;;;;3.13;3.03;;;24.40;45.20;;;;;;4888738;29;20185;-69
2021/04/05 13:07:10;;;;;;;2.50;2.40;;;23.90;47.70;;;;;;4887695;29;20233;-69
2021/04/05 13:09:40;;;;;;;3.65;3.38;;;23.70;46.00;;;;;;4887301;29;20267;-69
2021/04/05 13:12:22;;;;;;;2.40;2.30;;;23.30;46.70;;;;;;4887628;29;20177;-70
2021/04/05 13:15:02;;;;;;;2.72;2.63;;;22.70;47.70;;;;;;4885911;29;20208;-69
2021/04/05 13:17:32;;;;;;;2.97;2.88;;;22.20;46.70;;;;;;4884606;29;20193;-69
2021/04/05 13:20:11;;;;;;;3.03;2.83;;;21.70;48.40;;;;;;4888435;29;20687;-69
2021/04/05 13:22:40;;;;;;;2.90;2.70;;;21.40;47.80;;;;;;4888047;29;20613;-69
2021/04/05 13:25:24;;;;;;;3.08;2.97;;;20.80;47.20;;;;;;4875662;29;20181;-69
2021/04/05 13:27:52;;;;;;;3.20;3.05;;;20.10;50.10;;;;;;4888325;29;20197;-70
2021/04/05 13:30:19;;;;;;;2.95;2.85;;;19.90;50.30;;;;;;4886081;29;20192;-70
2021/04/05 13:32:51;;;;;;;3.58;3.28;;;20.10;49.00;;;;;;4880795;29;20196;-70
2021/04/05 13:35:20;;;;;;;2.50;2.40;;;20.20;49.50;;;;;;4883944;29;20173;-71